createdAt,value
2022-11-18T00:01:32.644Z,9.80
2022-11-18T00:04:00.785Z,9.90
2022-11-18T00:06:30.240Z,9.90
2022-11-18T00:09:00.455Z,9.90
2022-11-18T00:11:46.294Z,9.90
2022-11-18T00:14:21.460Z,9.90
2022-11-18T00:16:53.014Z,9.90
2022-11-18T00:19:22.587Z,10.00
2022-11-18T00:21:51.481Z,9.90
2022-11-18T00:24:20.283Z,9.90
2022-11-18T00:26:48.787Z,9.90
2022-11-18T00:29:17.832Z,9.90
2022-11-18T00:31:48.922Z,9.80
2022-11-18T00:34:19.797Z,9.80
2022-11-18T00:36:48.715Z,9.80
2022-11-18T00:39:18.446Z,9.70
2022-11-18T00:42:04.727Z,9.60
2022-11-18T00:44:33.824Z,9.50
2022-11-18T00:47:03.731Z,9.30
2022-11-18T00:49:33.962Z,9.30
2022-11-18T00:52:02.473Z,9.40
2022-11-18T00:54:31.297Z,9.40
2022-11-18T00:57:00.221Z,9.40
2022-11-18T00:59:28.472Z,9.40
2022-11-18T01:01:57.099Z,9.40
2022-11-18T01:04:25.633Z,9.40
2022-11-18T01:06:57.345Z,9.30
2022-11-18T01:09:25.689Z,9.40
2022-11-18T01:12:10.920Z,9.40
2022-11-18T01:14:39.172Z,9.40
2022-11-18T01:17:08.106Z,9.40
2022-11-18T01:19:36.697Z,9.40
2022-11-18T01:22:07.079Z,9.40
2022-11-18T01:24:35.597Z,9.40
2022-11-18T01:27:04.521Z,9.40
2022-11-18T01:29:32.706Z,9.50
2022-11-18T01:34:49.596Z,9.50
2022-11-18T01:37:19.973Z,9.50
2022-11-18T01:39:48.800Z,9.50
2022-11-18T01:42:18.413Z,9.50
2022-11-18T01:45:10.017Z,9.50
2022-11-18T01:47:42.169Z,9.50
2022-11-18T01:50:11.003Z,9.40
2022-11-18T01:52:42.043Z,9.40
2022-11-18T01:55:14.223Z,9.40
2022-11-18T01:57:42.902Z,9.40
2022-11-18T02:00:12.321Z,9.40
2022-11-18T02:02:40.868Z,9.30
2022-11-18T02:05:10.920Z,9.30
2022-11-18T02:07:42.023Z,9.20
2022-11-18T02:10:11.604Z,9.10
2022-11-18T02:12:40.210Z,9.00
2022-11-18T02:15:09.208Z,9.00
2022-11-18T02:17:42.661Z,8.90
2022-11-18T02:20:24.291Z,8.80
2022-11-18T02:23:11.362Z,8.80
2022-11-18T02:25:45.781Z,8.80
2022-11-18T02:28:23.521Z,8.80
2022-11-18T02:30:55.577Z,8.80
2022-11-18T02:33:25.409Z,8.80
2022-11-18T02:35:55.951Z,8.80
2022-11-18T02:38:27.169Z,8.80
2022-11-18T02:40:58.114Z,8.90
2022-11-18T02:43:28.407Z,8.90
2022-11-18T02:46:01.430Z,8.90
2022-11-18T02:48:30.464Z,8.90
2022-11-18T02:50:59.615Z,8.80
2022-11-18T02:53:29.728Z,8.70
2022-11-18T02:55:58.225Z,8.70
2022-11-18T02:58:27.628Z,8.60
2022-11-18T03:00:59.183Z,8.60
2022-11-18T03:03:28.800Z,8.60
2022-11-18T03:06:02.802Z,8.60
2022-11-18T03:08:36.089Z,8.60
2022-11-18T03:11:08.704Z,8.60
2022-11-18T03:13:41.357Z,8.60
2022-11-18T03:16:14.109Z,8.60
2022-11-18T03:18:44.346Z,8.60
2022-11-18T03:21:16.441Z,8.60
2022-11-18T03:23:48.998Z,8.60
2022-11-18T03:26:20.833Z,8.70
2022-11-18T03:28:51.935Z,8.70
2022-11-18T03:31:23.109Z,8.70
2022-11-18T03:33:53.563Z,8.70
2022-11-18T03:36:23.153Z,8.60
2022-11-18T03:38:52.685Z,8.70
2022-11-18T03:41:22.414Z,8.70
2022-11-18T03:43:53.859Z,8.70
2022-11-18T03:46:25.595Z,8.70
2022-11-18T03:48:55.725Z,8.80
2022-11-18T03:51:24.909Z,8.80
2022-11-18T03:53:57.869Z,8.80
2022-11-18T03:56:28.682Z,8.80
2022-11-18T03:58:59.221Z,8.80
2022-11-18T04:01:31.859Z,8.80
2022-11-18T04:04:00.149Z,8.70
2022-11-18T04:06:32.570Z,8.70
2022-11-18T04:09:02.400Z,8.70
2022-11-18T04:11:50.949Z,8.70
2022-11-18T04:14:20.711Z,8.70
2022-11-18T04:16:54.639Z,8.90
2022-11-18T04:19:23.557Z,9.00
2022-11-18T04:21:52.826Z,9.20
2022-11-18T04:24:21.561Z,9.40
2022-11-18T04:26:49.812Z,9.50
2022-11-18T04:29:18.540Z,9.50
2022-11-18T04:31:47.476Z,9.50
2022-11-18T04:34:17.745Z,9.50
2022-11-18T04:36:46.177Z,9.50
2022-11-18T04:39:15.094Z,9.50
2022-11-18T04:41:58.956Z,9.50
2022-11-18T04:44:28.601Z,9.50
2022-11-18T04:46:57.711Z,9.40
2022-11-18T04:49:28.029Z,9.40
2022-11-18T04:51:56.777Z,9.40
2022-11-18T04:54:25.672Z,9.30
2022-11-18T04:56:58.414Z,9.30
2022-11-18T04:59:27.580Z,9.30
2022-11-18T05:01:56.230Z,9.30
2022-11-18T05:04:25.687Z,9.30
2022-11-18T05:06:55.482Z,9.30
2022-11-18T05:09:27.369Z,9.30
2022-11-18T05:12:17.699Z,9.20
2022-11-18T05:14:50.149Z,9.30
2022-11-18T05:17:19.812Z,9.20
2022-11-18T05:19:48.269Z,9.10
2022-11-18T05:22:18.825Z,9.10
2022-11-18T05:24:47.248Z,9.10
2022-11-18T05:27:16.696Z,9.10
2022-11-18T05:29:45.357Z,9.10
2022-11-18T05:32:13.960Z,9.10
2022-11-18T05:34:42.621Z,9.10
2022-11-18T05:37:11.029Z,9.10
2022-11-18T05:39:40.994Z,9.10
2022-11-18T05:42:26.300Z,9.20
2022-11-18T05:44:58.509Z,9.20
2022-11-18T05:47:27.481Z,9.20
2022-11-18T05:49:56.498Z,9.10
2022-11-18T05:52:24.681Z,9.10
2022-11-18T05:54:54.805Z,9.10
2022-11-18T05:57:24.131Z,9.10
2022-11-18T05:59:52.613Z,9.10
2022-11-18T06:02:24.808Z,9.20
2022-11-18T06:04:55.033Z,9.20
2022-11-18T06:07:24.628Z,9.20
2022-11-18T06:10:02.098Z,9.20
2022-11-18T06:12:38.331Z,9.20
2022-11-18T06:15:08.849Z,9.20
2022-11-18T06:17:39.497Z,9.20
2022-11-18T06:20:08.806Z,9.20
2022-11-18T06:22:39.902Z,9.20
2022-11-18T06:25:13.533Z,9.20
2022-11-18T06:27:41.908Z,9.10
2022-11-18T06:30:11.358Z,9.20
2022-11-18T06:32:39.661Z,9.10
2022-11-18T06:35:08.626Z,9.20
2022-11-18T06:37:36.884Z,9.30
2022-11-18T06:40:05.337Z,9.30
2022-11-18T06:42:49.041Z,9.20
2022-11-18T06:45:17.471Z,9.20
2022-11-18T06:47:45.922Z,9.20
2022-11-18T06:50:14.442Z,9.30
2022-11-18T06:52:42.985Z,9.30
2022-11-18T06:55:11.248Z,9.30
2022-11-18T06:57:41.253Z,9.20
2022-11-18T07:00:10.786Z,9.20
2022-11-18T07:02:39.328Z,9.30
2022-11-18T07:05:07.711Z,9.30
2022-11-18T07:07:40.479Z,9.30
2022-11-18T07:10:10.745Z,9.20
2022-11-18T07:12:41.372Z,9.30
2022-11-18T07:15:10.244Z,9.40
2022-11-18T07:17:38.511Z,9.40
2022-11-18T07:20:07.219Z,9.40
2022-11-18T07:22:36.077Z,9.40
2022-11-18T07:25:04.526Z,9.40
2022-11-18T07:27:34.080Z,9.50
2022-11-18T07:30:04.502Z,9.50
2022-11-18T07:32:34.020Z,9.40
2022-11-18T07:35:02.176Z,9.40
2022-11-18T07:37:30.355Z,9.20
2022-11-18T07:40:00.071Z,9.00
2022-11-18T07:42:28.612Z,9.00
2022-11-18T07:44:56.922Z,8.90
2022-11-18T07:47:26.921Z,8.80
2022-11-18T07:49:55.715Z,8.70
2022-11-18T07:52:24.302Z,8.70
2022-11-18T07:54:52.696Z,8.70
2022-11-18T07:57:21.572Z,8.70
2022-11-18T07:59:49.744Z,8.70
2022-11-18T08:02:18.835Z,8.70
2022-11-18T08:04:48.703Z,8.70
2022-11-18T08:07:16.930Z,8.70
2022-11-18T08:09:45.569Z,8.70
2022-11-18T08:12:14.348Z,8.70
2022-11-18T08:14:43.044Z,8.60
2022-11-18T08:17:11.719Z,8.60
2022-11-18T08:19:39.842Z,8.70
2022-11-18T08:22:12.735Z,8.80
2022-11-18T08:24:41.317Z,8.90
2022-11-18T08:27:09.700Z,9.00
2022-11-18T08:29:38.270Z,9.10
2022-11-18T08:32:07.283Z,9.20
2022-11-18T08:34:36.621Z,9.40
2022-11-18T08:37:05.288Z,9.50
2022-11-18T08:39:35.288Z,9.70
2022-11-18T08:42:03.669Z,9.80
2022-11-18T08:44:34.705Z,9.90
2022-11-18T08:47:03.360Z,10.00
2022-11-18T08:49:32.717Z,10.10
2022-11-18T08:52:01.491Z,10.20
2022-11-18T08:54:30.021Z,10.30
2022-11-18T08:57:00.625Z,10.30
2022-11-18T08:59:30.927Z,10.30
2022-11-18T09:01:59.671Z,10.20
2022-11-18T09:04:28.325Z,10.20
2022-11-18T09:06:56.882Z,10.20
2022-11-18T09:09:25.412Z,10.20
2022-11-18T09:11:54.221Z,10.20
2022-11-18T09:17:14.568Z,10.20
2022-11-18T09:19:47.771Z,10.20
2022-11-18T09:22:16.882Z,10.20
2022-11-18T09:24:45.536Z,10.20
2022-11-18T09:27:16.953Z,10.20
2022-11-18T09:29:47.885Z,10.20
2022-11-18T09:32:16.354Z,10.20
2022-11-18T09:34:44.956Z,10.20
2022-11-18T09:37:13.570Z,10.20
2022-11-18T09:39:42.166Z,10.20
2022-11-18T09:42:20.124Z,10.30
2022-11-18T09:44:57.704Z,10.40
2022-11-18T09:47:28.375Z,10.40
2022-11-18T09:49:58.412Z,10.40
2022-11-18T09:52:34.329Z,10.40
2022-11-18T09:55:06.053Z,10.40
2022-11-18T09:57:39.166Z,10.50
2022-11-18T10:00:14.890Z,10.50
2022-11-18T10:02:47.686Z,10.50
2022-11-18T10:05:17.383Z,10.60
2022-11-18T10:07:51.268Z,10.60
2022-11-18T10:10:23.809Z,10.70
2022-11-18T10:12:55.422Z,10.70
2022-11-18T10:15:30.782Z,10.70
2022-11-18T10:18:03.373Z,10.70
2022-11-18T10:20:35.135Z,10.60
2022-11-18T10:23:06.454Z,10.50
2022-11-18T10:25:34.612Z,10.40
2022-11-18T10:28:13.661Z,10.40
2022-11-18T10:30:44.231Z,10.40
2022-11-18T10:33:29.497Z,10.40
2022-11-18T10:36:11.827Z,10.40
2022-11-18T10:38:42.347Z,10.40
2022-11-18T10:41:15.275Z,10.40
2022-11-18T10:43:44.794Z,10.30
2022-11-18T10:46:24.341Z,10.40
2022-11-18T10:49:13.413Z,10.40
2022-11-18T10:51:43.114Z,10.40
2022-11-18T10:54:16.051Z,10.40
2022-11-18T10:56:51.118Z,10.30
2022-11-18T10:59:26.152Z,10.30
2022-11-18T11:02:09.466Z,10.30
2022-11-18T11:04:39.034Z,10.00
2022-11-18T11:07:16.455Z,10.20
2022-11-18T11:09:45.864Z,10.20
2022-11-18T11:12:16.211Z,10.20
2022-11-18T11:14:51.527Z,10.10
2022-11-18T11:17:23.830Z,10.20
2022-11-18T11:19:54.128Z,10.20
2022-11-18T11:22:22.232Z,10.20
2022-11-18T11:24:51.308Z,10.20
2022-11-18T11:30:27.002Z,10.20
2022-11-18T11:33:22.637Z,10.20
2022-11-18T11:36:14.402Z,10.20
2022-11-18T11:38:58.669Z,10.20
2022-11-18T11:41:32.247Z,10.20
2022-11-18T11:44:17.888Z,10.20
2022-11-18T11:47:10.581Z,10.20
2022-11-18T11:49:49.285Z,10.20
2022-11-18T11:52:21.629Z,10.30
2022-11-18T11:54:55.485Z,10.20
2022-11-18T11:57:31.813Z,10.20
2022-11-18T12:00:07.795Z,10.20
2022-11-18T12:02:40.493Z,10.30
2022-11-18T12:05:16.170Z,10.30
2022-11-18T12:07:47.884Z,10.30
2022-11-18T12:10:23.846Z,10.30
2022-11-18T12:12:55.439Z,10.30
2022-11-18T12:15:34.359Z,10.30
2022-11-18T12:18:06.247Z,10.40
2022-11-18T12:20:39.092Z,10.50
2022-11-18T12:23:11.402Z,10.50
2022-11-18T12:25:54.916Z,10.50
2022-11-18T12:28:27.535Z,10.50
2022-11-18T12:31:14.634Z,10.40
2022-11-18T12:33:44.175Z,10.40
2022-11-18T12:36:26.013Z,10.40
2022-11-18T12:38:54.698Z,10.40
2022-11-18T12:42:04.123Z,10.40
2022-11-18T12:44:34.234Z,10.50
2022-11-18T12:47:03.285Z,10.60
2022-11-18T12:49:50.394Z,10.60
2022-11-18T12:52:37.315Z,10.60
2022-11-18T12:55:06.352Z,10.70
2022-11-18T12:57:35.437Z,10.60
2022-11-18T13:00:20.195Z,10.40
2022-11-18T13:02:53.282Z,10.20
2022-11-18T13:05:22.765Z,10.20
2022-11-18T13:08:10.287Z,10.10
2022-11-18T13:10:41.642Z,10.00
2022-11-18T13:13:15.340Z,10.00
2022-11-18T13:16:02.681Z,10.10
2022-11-18T13:18:31.156Z,10.00
2022-11-18T13:21:21.077Z,10.00
2022-11-18T13:23:59.270Z,10.00
2022-11-18T13:26:30.509Z,10.00
2022-11-18T13:29:04.516Z,10.00
2022-11-18T13:31:39.516Z,10.10
2022-11-18T13:34:11.883Z,10.10
2022-11-18T13:36:44.511Z,10.10
2022-11-18T13:39:19.264Z,10.00
2022-11-18T13:41:48.306Z,9.90
2022-11-18T13:44:20.610Z,9.90
2022-11-18T13:46:53.254Z,9.60
2022-11-18T13:49:24.228Z,9.80
2022-11-18T13:51:53.462Z,9.80
2022-11-18T13:54:23.357Z,9.80
2022-11-18T13:56:51.565Z,9.80
2022-11-18T13:59:21.625Z,9.90
2022-11-18T14:01:55.552Z,9.90
2022-11-18T14:04:25.494Z,9.90
2022-11-18T14:06:54.314Z,9.80
2022-11-18T14:09:25.384Z,9.90
2022-11-18T14:12:00.902Z,9.90
2022-11-18T14:14:30.807Z,9.90
2022-11-18T14:17:06.837Z,9.90
2022-11-18T14:19:35.224Z,9.90
2022-11-18T14:22:12.692Z,9.90
2022-11-18T14:24:41.507Z,9.90
2022-11-18T14:27:28.643Z,10.00
2022-11-18T14:29:57.666Z,10.00
2022-11-18T14:32:27.844Z,9.90
2022-11-18T14:35:00.163Z,10.00
2022-11-18T14:37:28.690Z,10.00
2022-11-18T14:39:57.618Z,10.00
2022-11-18T14:42:26.733Z,10.10
2022-11-18T14:44:55.426Z,10.20
2022-11-18T14:47:27.124Z,10.30
2022-11-18T14:49:56.909Z,10.30
2022-11-18T14:52:25.294Z,10.40
2022-11-18T14:54:53.598Z,10.40
2022-11-18T14:57:22.031Z,10.50
2022-11-18T14:59:50.744Z,10.50
2022-11-18T15:02:19.392Z,10.40
2022-11-18T15:04:48.820Z,10.40
2022-11-18T15:07:23.740Z,10.30
2022-11-18T15:09:52.608Z,10.30
2022-11-18T15:12:21.103Z,10.20
2022-11-18T15:14:49.847Z,10.10
2022-11-18T15:17:20.495Z,10.10
2022-11-18T15:19:49.385Z,10.00
2022-11-18T15:22:19.259Z,10.00
2022-11-18T15:24:51.201Z,10.00
2022-11-18T15:27:19.986Z,9.90
2022-11-18T15:29:50.679Z,9.80
2022-11-18T15:32:19.132Z,9.70
2022-11-18T15:34:49.949Z,9.60
2022-11-18T15:37:20.083Z,9.60
2022-11-18T15:39:50.707Z,9.50
2022-11-18T15:42:23.276Z,9.40
2022-11-18T15:44:52.264Z,9.40
2022-11-18T15:47:20.835Z,9.30
2022-11-18T15:49:49.742Z,9.30
2022-11-18T15:52:19.871Z,9.20
2022-11-18T15:54:48.220Z,9.20
2022-11-18T15:57:16.698Z,9.20
2022-11-18T15:59:44.980Z,9.20
2022-11-18T16:02:13.580Z,9.10
2022-11-18T16:04:42.026Z,9.10
2022-11-18T16:07:10.683Z,9.00
2022-11-18T16:09:58.525Z,9.00
2022-11-18T16:12:44.055Z,9.00
2022-11-18T16:15:29.417Z,8.90
2022-11-18T16:17:58.424Z,9.00
2022-11-18T16:20:27.216Z,9.00
2022-11-18T16:22:56.707Z,9.00
2022-11-18T16:25:27.551Z,9.00
2022-11-18T16:27:58.559Z,9.00
2022-11-18T16:30:48.058Z,9.00
2022-11-18T16:33:16.370Z,9.00
2022-11-18T16:35:48.594Z,9.00
2022-11-18T16:38:17.179Z,9.00
2022-11-18T16:40:47.399Z,9.10
2022-11-18T16:43:16.316Z,9.00
2022-11-18T16:45:51.718Z,9.00
2022-11-18T16:48:20.187Z,9.00
2022-11-18T16:50:53.407Z,9.10
2022-11-18T16:53:21.388Z,9.10
2022-11-18T16:55:51.032Z,9.10
2022-11-18T16:58:19.254Z,9.10
2022-11-18T17:01:16.606Z,9.10
2022-11-18T17:03:36.128Z,9.10
2022-11-18T17:06:04.671Z,9.00
2022-11-18T17:08:35.130Z,9.10
2022-11-18T17:11:09.248Z,9.10
2022-11-18T17:13:37.731Z,9.10
2022-11-18T17:16:06.856Z,9.10
2022-11-18T17:18:35.587Z,9.20
2022-11-18T17:21:06.042Z,9.20
2022-11-18T17:23:34.585Z,9.20
2022-11-18T17:26:03.888Z,9.20
2022-11-18T17:28:34.292Z,9.20
2022-11-18T17:31:05.689Z,9.00
2022-11-18T17:33:34.437Z,8.90
2022-11-18T17:36:02.938Z,9.00
2022-11-18T17:38:32.572Z,9.00
2022-11-18T17:41:00.821Z,9.00
2022-11-18T17:43:29.528Z,9.10
2022-11-18T17:46:00.453Z,9.10
2022-11-18T17:48:30.571Z,9.10
2022-11-18T17:51:05.333Z,9.10
2022-11-18T17:53:34.143Z,9.20
2022-11-18T17:56:04.181Z,9.20
2022-11-18T17:58:33.408Z,9.20
2022-11-18T18:01:09.874Z,9.10
2022-11-18T18:03:38.244Z,9.20
2022-11-18T18:06:07.137Z,9.30
2022-11-18T18:08:35.472Z,9.30
2022-11-18T18:11:04.473Z,9.30
2022-11-18T18:13:49.851Z,9.30
2022-11-18T18:16:20.502Z,9.40
2022-11-18T18:18:48.714Z,9.40
2022-11-18T18:21:17.704Z,9.40
2022-11-18T18:23:46.104Z,9.40
2022-11-18T18:26:15.063Z,9.40
2022-11-18T18:28:43.283Z,9.40
2022-11-18T18:31:13.215Z,9.40
2022-11-18T18:33:42.987Z,9.40
2022-11-18T18:36:12.843Z,9.30
2022-11-18T18:38:42.075Z,9.30
2022-11-18T18:41:11.316Z,9.20
2022-11-18T18:43:39.947Z,9.30
2022-11-18T18:46:26.176Z,9.30
2022-11-18T18:48:56.133Z,9.30
2022-11-18T18:51:24.623Z,9.30
2022-11-18T18:53:52.959Z,9.30
2022-11-18T18:56:21.559Z,9.30
2022-11-18T18:58:50.036Z,9.30
2022-11-18T19:01:19.836Z,9.30
2022-11-18T19:03:48.336Z,9.30
2022-11-18T19:06:50.065Z,9.20
2022-11-18T19:09:11.736Z,9.10
2022-11-18T19:11:58.688Z,9.10
2022-11-18T19:14:26.944Z,9.10
2022-11-18T19:16:55.864Z,9.00
2022-11-18T19:19:45.276Z,9.00
2022-11-18T19:22:16.408Z,9.00
2022-11-18T19:24:52.613Z,9.00
2022-11-18T19:27:21.844Z,9.00
2022-11-18T19:29:50.284Z,9.00
2022-11-18T19:32:18.757Z,9.00
2022-11-18T19:34:47.458Z,9.00
2022-11-18T19:37:18.582Z,9.00
2022-11-18T19:39:47.230Z,9.00
2022-11-18T19:42:15.756Z,8.90
2022-11-18T19:44:43.981Z,8.90
2022-11-18T19:47:12.067Z,8.90
2022-11-18T19:49:40.349Z,8.90
2022-11-18T19:52:09.087Z,8.90
2022-11-18T19:54:39.188Z,8.80
2022-11-18T19:57:08.171Z,8.80
2022-11-18T19:59:36.811Z,8.80
2022-11-18T20:02:05.533Z,8.80
2022-11-18T20:04:33.786Z,8.80
2022-11-18T20:07:02.097Z,8.70
2022-11-18T20:09:30.564Z,8.70
2022-11-18T20:12:00.653Z,8.70
2022-11-18T20:14:28.899Z,8.70
2022-11-18T20:16:57.108Z,8.70
2022-11-18T20:19:25.657Z,8.70
2022-11-18T20:21:54.076Z,8.70
2022-11-18T20:24:22.275Z,8.60
2022-11-18T20:26:50.712Z,8.60
2022-11-18T20:29:21.150Z,8.60
2022-11-18T20:31:50.040Z,8.60
2022-11-18T20:34:18.814Z,8.70
2022-11-18T20:36:52.017Z,8.70
2022-11-18T20:39:20.418Z,8.70
2022-11-18T20:42:12.873Z,8.70
2022-11-18T20:44:43.074Z,8.70
2022-11-18T20:47:11.539Z,8.70
2022-11-18T20:49:40.023Z,8.70
2022-11-18T20:52:08.616Z,8.70
2022-11-18T20:54:37.112Z,8.70
2022-11-18T20:57:06.072Z,8.60
2022-11-18T20:59:34.154Z,8.60
2022-11-18T21:02:04.047Z,8.50
2022-11-18T21:04:32.662Z,8.50
2022-11-18T21:07:02.224Z,8.40
2022-11-18T21:09:33.387Z,8.40
2022-11-18T21:12:02.068Z,8.40
2022-11-18T21:14:29.592Z,8.40
2022-11-18T21:17:00.828Z,8.50
2022-11-18T21:19:33.095Z,8.40
2022-11-18T21:22:01.289Z,8.30
2022-11-18T21:24:30.373Z,8.30
2022-11-18T21:26:59.763Z,8.30
2022-11-18T21:29:29.233Z,8.30
2022-11-18T21:31:58.228Z,8.20
2022-11-18T21:34:27.087Z,8.20
2022-11-18T21:36:57.120Z,8.10
2022-11-18T21:39:25.583Z,8.10
2022-11-18T21:41:56.546Z,8.00
2022-11-18T21:44:25.932Z,8.10
2022-11-18T21:46:54.449Z,8.10
2022-11-18T21:49:23.091Z,8.20
2022-11-18T21:51:51.707Z,8.20
2022-11-18T21:54:21.667Z,8.20
2022-11-18T21:56:50.183Z,8.10
2022-11-18T21:59:19.196Z,8.10
2022-11-18T22:01:47.958Z,8.20
2022-11-18T22:04:37.836Z,8.10
2022-11-18T22:07:07.182Z,8.10
2022-11-18T22:09:37.269Z,8.10
2022-11-18T22:12:07.023Z,8.10
2022-11-18T22:14:36.437Z,8.10
2022-11-18T22:17:05.048Z,8.00
2022-11-18T22:19:33.490Z,7.90
2022-11-18T22:22:02.222Z,7.90
2022-11-18T22:24:30.754Z,8.00
2022-11-18T22:27:01.025Z,8.00
2022-11-18T22:29:29.575Z,8.00
2022-11-18T22:31:58.152Z,8.10
2022-11-18T22:34:26.979Z,8.10
2022-11-18T22:36:55.560Z,8.10
2022-11-18T22:39:24.043Z,8.00
2022-11-18T22:42:09.835Z,8.00
2022-11-18T22:44:39.728Z,7.90
2022-11-18T22:47:07.988Z,7.90
2022-11-18T22:49:36.096Z,7.90
2022-11-18T22:52:04.708Z,7.80
2022-11-18T22:54:40.700Z,7.70
2022-11-18T22:57:09.826Z,7.70
2022-11-18T22:59:39.558Z,7.70
2022-11-18T23:02:07.774Z,7.70
2022-11-18T23:04:35.883Z,7.70
2022-11-18T23:07:04.553Z,7.80
2022-11-18T23:09:33.306Z,7.90
2022-11-18T23:12:19.043Z,7.80
2022-11-18T23:14:49.224Z,7.70
2022-11-18T23:17:17.990Z,7.80
2022-11-18T23:19:47.181Z,7.70
2022-11-18T23:22:16.333Z,7.70
2022-11-18T23:24:45.063Z,7.60
2022-11-18T23:27:13.373Z,7.60
2022-11-18T23:29:41.497Z,7.60
2022-11-18T23:32:11.219Z,7.50
2022-11-18T23:34:39.409Z,7.50
2022-11-18T23:37:08.178Z,7.50
2022-11-18T23:39:37.486Z,7.50
2022-11-18T23:42:06.159Z,7.50
2022-11-18T23:44:52.813Z,7.60
2022-11-18T23:47:22.931Z,7.60
2022-11-18T23:49:51.773Z,7.60
2022-11-18T23:52:22.058Z,7.60
2022-11-18T23:54:52.248Z,7.60
2022-11-18T23:57:20.961Z,7.60
2022-11-18T23:59:49.555Z,7.70
